Time;durP1;ratioP1;P1;durP2;ratioP2;P2;SDS_P1;SDS_P2;PMS_P1;PMS_P2;Temp;Humidity;BMP_temperature;BMP_pressure;BME280_temperature;BME280_humidity;BME280_pressure;Samples;Min_cycle;Max_cycle;Signal;HPM_P1;HPM_P2
2024/04/18 00:00:26;;;;;;;15.73;9.23;;;;;;;4.67;100.00;98361.00;5414448;26;20419;-57
2024/04/18 00:02:51;;;;;;;17.15;9.82;;;;;;;4.72;100.00;98356.78;5419010;26;20453;-57
2024/04/18 00:05:19;;;;;;;16.20;8.60;;;;;;;4.72;100.00;98347.91;5419704;26;19999;-57
2024/04/18 00:07:45;;;;;;;13.73;7.30;;;;;;;4.73;100.00;98352.25;5409196;26;20028;-57
2024/04/18 00:10:10;;;;;;;10.95;6.50;;;;;;;4.79;100.00;98344.34;5413534;26;20061;-57
2024/04/18 00:12:35;;;;;;;10.52;5.85;;;;;;;4.84;100.00;98349.97;5416715;26;20443;-57
2024/04/18 00:15:01;;;;;;;12.07;7.65;;;;;;;4.84;100.00;98346.47;5409211;26;20500;-57
2024/04/18 00:17:26;;;;;;;14.93;8.20;;;;;;;4.87;100.00;98353.31;5417464;26;19996;-57
2024/04/18 00:19:51;;;;;;;14.70;7.70;;;;;;;4.82;100.00;98338.63;5421253;26;19996;-57
2024/04/18 00:22:17;;;;;;;10.05;6.00;;;;;;;4.82;100.00;98343.13;5422787;26;19995;-57
2024/04/18 00:24:43;;;;;;;13.02;6.60;;;;;;;4.81;100.00;98347.66;5416128;26;20015;-57
2024/04/18 00:27:09;;;;;;;9.85;5.18;;;;;;;4.83;100.00;98344.81;5412622;26;20000;-57
2024/04/18 00:29:35;;;;;;;10.30;6.13;;;;;;;4.86;100.00;98344.47;5415764;26;20052;-57
2024/04/18 00:32:01;;;;;;;9.85;5.05;;;;;;;4.76;100.00;98338.50;5412862;26;19995;-57
2024/04/18 00:34:26;;;;;;;11.27;7.10;;;;;;;4.75;100.00;98337.66;5412572;26;20018;-57
2024/04/18 00:36:51;;;;;;;10.15;5.47;;;;;;;4.72;100.00;98329.16;5416474;26;20010;-57
2024/04/18 00:39:17;;;;;;;8.40;4.80;;;;;;;4.77;100.00;98332.97;5413912;26;20003;-57
2024/04/18 00:41:42;;;;;;;5.95;3.25;;;;;;;4.75;100.00;98323.44;5411532;26;20086;-57
2024/04/18 00:44:10;;;;;;;6.78;3.80;;;;;;;4.78;100.00;98336.47;5407370;26;20003;-57
2024/04/18 00:46:35;;;;;;;5.15;3.50;;;;;;;4.74;100.00;98332.47;5408817;26;19995;-57
2024/04/18 00:49:01;;;;;;;5.50;2.78;;;;;;;4.77;100.00;98334.81;5417920;26;20072;-57
2024/04/18 00:51:27;;;;;;;7.05;3.38;;;;;;;4.77;100.00;98341.00;5420194;26;20007;-57
2024/04/18 00:53:53;;;;;;;7.78;3.85;;;;;;;4.73;100.00;98325.44;5422633;26;20346;-57
2024/04/18 00:56:19;;;;;;;8.45;3.72;;;;;;;4.81;100.00;98338.78;5417518;26;20007;-58
2024/04/18 00:58:47;;;;;;;5.65;3.80;;;;;;;4.83;100.00;98336.78;5416461;26;20000;-57
2024/04/18 01:01:13;;;;;;;6.95;3.72;;;;;;;4.82;100.00;98327.06;5413205;26;20067;-57
2024/04/18 01:03:40;;;;;;;5.13;3.40;;;;;;;4.83;100.00;98337.59;5422423;26;20319;-57
2024/04/18 01:06:08;;;;;;;7.53;3.70;;;;;;;4.85;100.00;98326.72;5410432;26;20431;-57
2024/04/18 01:08:34;;;;;;;5.20;3.40;;;;;;;4.97;100.00;98330.63;5420079;26;19995;-57
2024/04/18 01:10:59;;;;;;;5.65;3.35;;;;;;;4.94;100.00;98325.63;5418563;26;20421;-57
2024/04/18 01:13:35;;;;;;;5.47;3.22;;;;;;;4.91;100.00;98331.34;5424877;26;20007;-57
2024/04/18 01:16:00;;;;;;;5.68;2.75;;;;;;;4.85;100.00;98329.41;5378262;26;20000;-57
2024/04/18 01:18:27;;;;;;;6.78;3.20;;;;;;;4.84;100.00;98333.06;5428055;26;20019;-62
2024/04/18 01:20:52;;;;;;;4.38;2.80;;;;;;;4.81;100.00;98331.59;5412163;26;20019;-63
2024/04/18 01:23:17;;;;;;;6.68;2.88;;;;;;;4.87;100.00;98329.19;5415068;26;20003;-62
2024/04/18 01:25:43;;;;;;;4.63;2.78;;;;;;;4.90;100.00;98327.03;5405373;26;20007;-63
2024/04/18 01:28:08;;;;;;;4.22;2.45;;;;;;;4.88;100.00;98334.41;5410590;26;20488;-63
2024/04/18 01:30:36;;;;;;;5.20;3.33;;;;;;;4.95;100.00;98338.03;5416763;26;20000;-62
2024/04/18 01:33:02;;;;;;;8.25;1.95;;;;;;;4.88;100.00;98338.94;5411467;26;20011;-63
2024/04/18 01:35:28;;;;;;;4.20;2.15;;;;;;;4.90;100.00;98329.69;5418438;26;19995;-63
2024/04/18 01:37:53;;;;;;;2.97;1.73;;;;;;;4.92;100.00;98338.38;5412208;26;19999;-63
2024/04/18 01:40:18;;;;;;;3.95;1.88;;;;;;;4.92;100.00;98335.69;5410009;26;20019;-63
2024/04/18 01:42:44;;;;;;;3.13;1.80;;;;;;;4.81;100.00;98336.13;5401488;26;20069;-62
2024/04/18 01:45:09;;;;;;;3.63;1.70;;;;;;;4.84;100.00;98341.94;5414597;26;20004;-63
2024/04/18 01:47:34;;;;;;;5.53;1.90;;;;;;;4.64;100.00;98337.22;5396566;26;20049;-62
2024/04/18 01:50:00;;;;;;;4.43;1.95;;;;;;;4.70;100.00;98349.94;5414671;26;20419;-63
2024/04/18 01:52:25;;;;;;;3.95;2.20;;;;;;;4.70;100.00;98350.75;5401877;26;20000;-63
2024/04/18 01:54:53;;;;;;;5.88;2.10;;;;;;;4.64;100.00;98355.97;5417565;26;19996;-63
2024/04/18 01:57:21;;;;;;;4.15;2.53;;;;;;;4.62;100.00;98353.50;5402331;26;19999;-63
2024/04/18 01:59:47;;;;;;;3.72;2.30;;;;;;;4.68;100.00;98349.25;5410978;26;20011;-63
2024/04/18 02:02:12;;;;;;;3.90;2.60;;;;;;;4.55;100.00;98361.38;5403795;26;20003;-63
2024/04/18 02:04:37;;;;;;;4.38;2.50;;;;;;;4.57;100.00;98367.41;5417143;26;20014;-63
2024/04/18 02:07:03;;;;;;;7.30;2.80;;;;;;;4.50;100.00;98363.75;5408129;26;20036;-63
2024/04/18 02:09:28;;;;;;;4.78;2.42;;;;;;;4.44;100.00;98356.44;5415635;26;19999;-62
2024/04/18 02:11:53;;;;;;;3.90;2.55;;;;;;;4.48;100.00;98364.94;5410339;26;20020;-63
2024/04/18 02:14:19;;;;;;;2.85;1.70;;;;;;;4.54;100.00;98370.44;5425694;26;20081;-63
2024/04/18 02:16:44;;;;;;;3.97;2.03;;;;;;;4.63;100.00;98367.72;5415861;26;20014;-63
2024/04/18 02:19:10;;;;;;;3.53;2.22;;;;;;;4.61;100.00;98371.41;5418040;26;20018;-63
2024/04/18 02:21:35;;;;;;;4.93;2.53;;;;;;;4.68;100.00;98368.03;5416463;26;20006;-63
2024/04/18 02:24:00;;;;;;;2.85;1.80;;;;;;;4.77;100.00;98358.94;5427513;26;20000;-63
2024/04/18 02:26:26;;;;;;;5.80;2.30;;;;;;;4.73;100.00;98371.00;5381132;26;20040;-63
2024/04/18 02:28:51;;;;;;;4.25;2.10;;;;;;;4.68;100.00;98373.38;5413910;26;20010;-63
2024/04/18 02:31:16;;;;;;;2.83;2.08;;;;;;;4.59;100.00;98360.03;5405251;26;20340;-63
2024/04/18 02:33:42;;;;;;;2.83;1.95;;;;;;;4.67;100.00;98377.09;5414669;26;20010;-63
2024/04/18 02:36:07;;;;;;;3.10;2.05;;;;;;;4.65;100.00;98369.22;5384002;26;20411;-63
2024/04/18 02:38:33;;;;;;;3.35;2.33;;;;;;;4.68;100.00;98357.31;5418669;26;20006;-64
2024/04/18 02:41:05;;;;;;;3.53;2.28;;;;;;;4.70;100.00;98366.00;5413328;26;19997;-63
2024/04/18 02:43:31;;;;;;;3.58;2.40;;;;;;;4.55;100.00;98358.72;5420975;26;20413;-63
2024/04/18 02:45:56;;;;;;;3.45;2.25;;;;;;;4.50;100.00;98362.94;5409127;26;20036;-63
2024/04/18 02:48:22;;;;;;;3.08;2.30;;;;;;;4.56;100.00;98364.94;5398383;26;20014;-63
2024/04/18 02:50:47;;;;;;;4.72;2.33;;;;;;;4.52;100.00;98369.78;5401027;26;20037;-63
2024/04/18 02:53:12;;;;;;;5.25;2.30;;;;;;;4.58;100.00;98366.41;5415462;26;20007;-63
2024/04/18 02:55:38;;;;;;;4.75;2.67;;;;;;;4.57;100.00;98375.44;5413454;26;19995;-63
2024/04/18 02:58:03;;;;;;;3.13;2.45;;;;;;;4.55;100.00;98377.47;5422040;26;20004;-63
2024/04/18 03:00:29;;;;;;;4.85;2.67;;;;;;;4.46;100.00;98367.81;5417576;26;19999;-64
2024/04/18 03:02:54;;;;;;;4.45;2.47;;;;;;;4.38;100.00;98378.56;5420197;26;20435;-64
2024/04/18 03:05:19;;;;;;;4.90;2.88;;;;;;;4.38;100.00;98381.25;5408979;26;19999;-63
2024/04/18 03:07:45;;;;;;;4.13;2.67;;;;;;;4.42;100.00;98379.03;5363210;26;19995;-63
2024/04/18 03:10:11;;;;;;;3.90;2.58;;;;;;;4.36;100.00;98384.09;5420763;26;20000;-58
2024/04/18 03:12:37;;;;;;;5.90;2.95;;;;;;;4.31;100.00;98378.41;5429199;21;20096;-83
2024/04/18 03:15:03;;;;;;;4.95;2.50;;;;;;;4.13;100.00;98353.72;5331853;26;19993;-83
2024/04/18 03:17:28;;;;;;;4.15;2.72;;;;;;;4.08;100.00;98362.25;5342529;26;20007;-83
2024/04/18 03:19:53;;;;;;;4.55;2.65;;;;;;;4.22;100.00;98381.28;5348438;26;20162;-80
2024/04/18 03:22:19;;;;;;;4.70;2.75;;;;;;;4.23;100.00;98385.66;5367630;26;20212;-80
2024/04/18 03:24:44;;;;;;;7.13;3.00;;;;;;;4.23;100.00;98374.94;5332965;26;20005;-80
2024/04/18 03:27:09;;;;;;;6.30;3.13;;;;;;;4.10;100.00;98359.44;5356113;26;20014;-79
2024/04/18 03:29:35;;;;;;;4.18;2.97;;;;;;;4.20;100.00;98357.38;5369860;26;20051;-79
2024/04/18 03:32:03;;;;;;;5.32;3.15;;;;;;;4.27;100.00;98374.44;5337668;26;20011;-80
2024/04/18 03:34:28;;;;;;;4.80;3.15;;;;;;;4.13;100.00;98375.97;5329563;26;20143;-79
2024/04/18 03:36:54;;;;;;;5.18;3.58;;;;;;;4.18;100.00;98372.78;5344713;26;19993;-85
2024/04/18 03:39:19;;;;;;;4.72;3.00;;;;;;;4.17;100.00;98384.50;5330184;26;20210;-80
2024/04/18 03:41:49;;;;;;;5.72;3.63;;;;;;;4.08;100.00;98375.66;5329070;26;20005;-79
2024/04/18 03:44:14;;;;;;;6.03;3.80;;;;;;;4.18;100.00;98386.16;5335940;26;20011;-81
2024/04/18 03:46:40;;;;;;;5.50;3.63;;;;;;;4.16;100.00;98389.00;5328553;26;19989;-84
2024/04/18 03:49:07;;;;;;;7.47;3.92;;;;;;;4.10;100.00;98383.53;5334781;26;20046;-85
2024/04/18 03:51:35;;;;;;;9.38;3.95;;;;;;;4.07;100.00;98376.66;5331721;26;20006;-79
2024/04/18 03:54:01;;;;;;;6.47;3.80;;;;;;;4.04;100.00;98376.19;5362471;26;20000;-79
2024/04/18 03:56:26;;;;;;;6.80;3.88;;;;;;;4.09;100.00;98398.75;5354918;26;20000;-83
2024/04/18 03:58:54;;;;;;;6.00;3.53;;;;;;;4.16;100.00;98404.25;5356053;26;20004;-78
2024/04/18 04:01:19;;;;;;;6.55;3.75;;;;;;;4.15;100.00;98400.72;5352574;26;20025;-79
2024/04/18 04:03:44;;;;;;;5.00;3.33;;;;;;;4.24;100.00;98408.72;5328888;26;20004;-81
2024/04/18 04:06:10;;;;;;;5.82;3.20;;;;;;;4.11;100.00;98396.75;5327373;26;19997;-81
2024/04/18 04:08:35;;;;;;;7.57;3.45;;;;;;;4.01;100.00;98380.03;5339541;26;20209;-80
2024/04/18 04:11:00;;;;;;;5.05;3.05;;;;;;;4.20;100.00;98408.25;5331719;26;20009;-79
2024/04/18 04:13:26;;;;;;;4.72;3.13;;;;;;;4.17;100.00;98414.78;5360341;26;20009;-79
2024/04/18 04:15:51;;;;;;;3.67;2.42;;;;;;;4.10;100.00;98404.94;5332698;26;20217;-79
2024/04/18 04:18:16;;;;;;;5.82;3.10;;;;;;;4.10;100.00;98403.09;5332187;26;19996;-80
2024/04/18 04:20:43;;;;;;;5.13;2.78;;;;;;;4.22;100.00;98419.63;5334980;26;20044;-80
2024/04/18 04:23:09;;;;;;;3.30;2.40;;;;;;;4.04;100.00;98394.94;5364548;26;20219;-83
2024/04/18 04:25:34;;;;;;;4.07;2.60;;;;;;;4.10;100.00;98399.59;5335911;26;19996;-77
2024/04/18 04:27:59;;;;;;;4.25;2.67;;;;;;;4.02;100.00;98395.09;5358296;26;20030;-77
2024/04/18 04:30:25;;;;;;;5.03;3.00;;;;;;;4.16;100.00;98423.81;5356875;26;20058;-79
2024/04/18 04:32:50;;;;;;;4.70;2.80;;;;;;;4.07;100.00;98416.81;5328498;26;19997;-79
2024/04/18 04:35:15;;;;;;;4.72;2.83;;;;;;;4.11;100.00;98436.91;5334328;26;19992;-79
2024/04/18 04:37:41;;;;;;;6.45;2.70;;;;;;;4.08;100.00;98425.69;5326627;26;20004;-79
2024/04/18 04:40:06;;;;;;;3.83;2.70;;;;;;;4.03;100.00;98434.22;5340641;26;19993;-79
2024/04/18 04:42:34;;;;;;;5.07;2.92;;;;;;;4.07;100.00;98446.28;5358122;26;19989;-80
2024/04/18 04:45:00;;;;;;;4.82;2.90;;;;;;;3.99;100.00;98454.31;5336664;26;20159;-77
2024/04/18 04:47:25;;;;;;;4.63;2.92;;;;;;;3.95;100.00;98464.50;5341096;26;19993;-77
2024/04/18 04:49:51;;;;;;;4.78;3.13;;;;;;;3.87;100.00;98461.84;5335321;26;20004;-77
2024/04/18 04:52:17;;;;;;;5.10;3.45;;;;;;;3.70;100.00;98444.16;5337446;26;21049;-77
2024/04/18 04:54:42;;;;;;;4.40;2.95;;;;;;;3.74;100.00;98459.69;5344444;26;20003;-77
2024/04/18 04:57:08;;;;;;;4.07;3.05;;;;;;;3.84;100.00;98477.41;5335993;26;19995;-77
2024/04/18 04:59:34;;;;;;;4.60;2.90;;;;;;;3.63;100.00;98443.16;5329349;26;19997;-76
2024/04/18 05:01:59;;;;;;;4.20;2.90;;;;;;;3.76;100.00;98475.56;5324866;26;20004;-77
2024/04/18 05:04:24;;;;;;;4.65;2.95;;;;;;;3.87;100.00;98480.56;5332708;26;20000;-77
2024/04/18 05:06:49;;;;;;;4.13;3.03;;;;;;;3.82;100.00;98482.91;5364416;26;19997;-77
2024/04/18 05:09:20;;;;;;;8.00;3.17;;;;;;;3.68;100.00;98452.34;5334451;26;20001;-81
2024/04/18 05:11:46;;;;;;;5.35;3.45;;;;;;;3.97;100.00;98487.59;5335408;26;20263;-81
2024/04/18 05:14:12;;;;;;;7.32;3.63;;;;;;;4.16;100.00;98506.81;5336385;26;20117;-79
2024/04/18 05:16:37;;;;;;;5.65;3.35;;;;;;;4.23;100.00;98498.94;5352101;26;20000;-79
2024/04/18 05:19:02;;;;;;;4.93;3.25;;;;;;;4.30;100.00;98501.78;5339106;26;20000;-80
2024/04/18 05:21:27;;;;;;;5.57;3.53;;;;;;;4.47;100.00;98511.44;5343076;26;20220;-84
2024/04/18 05:23:53;;;;;;;6.65;4.00;;;;;;;4.63;100.00;98504.34;5331814;26;20007;-84
2024/04/18 05:26:18;;;;;;;5.47;3.55;;;;;;;4.77;100.00;98507.16;5336042;26;20055;-85
2024/04/18 05:31:28;;;;;;;8.25;3.78;;;;;;;4.92;100.00;98509.94;5362695;26;20008;-86
2024/04/18 05:33:53;;;;;;;5.05;3.50;;;;;;;5.01;100.00;98500.03;5342837;26;19997;-85
2024/04/18 05:36:19;;;;;;;5.53;3.17;;;;;;;5.11;100.00;98505.16;5329958;26;20108;-76
2024/04/18 05:38:44;;;;;;;5.50;3.50;;;;;;;4.99;100.00;98473.38;5348347;26;20098;-77
2024/04/18 05:41:09;;;;;;;6.32;3.70;;;;;;;5.21;100.00;98509.31;5332174;26;19997;-83
2024/04/18 05:43:35;;;;;;;5.22;3.40;;;;;;;5.31;100.00;98514.44;5333991;26;19992;-83
2024/04/18 05:46:00;;;;;;;6.75;3.22;;;;;;;5.30;100.00;98504.72;5335345;26;20001;-76
2024/04/18 05:48:25;;;;;;;5.10;3.33;;;;;;;5.31;100.00;98498.34;5360506;26;20003;-83
2024/04/18 05:50:50;;;;;;;4.88;3.30;;;;;;;5.41;100.00;98515.03;5338846;26;19989;-82
2024/04/18 05:53:17;;;;;;;5.70;3.25;;;;;;;5.62;100.00;98522.44;5333968;26;19997;-80
2024/04/18 05:55:42;;;;;;;5.35;3.08;;;;;;;5.80;100.00;98530.19;5335863;26;20197;-79
2024/04/18 05:58:08;;;;;;;5.15;3.35;;;;;;;5.93;100.00;98519.72;5364189;26;20043;-81
2024/04/18 06:00:34;;;;;;;6.03;3.72;;;;;;;5.98;100.00;98515.66;5327489;26;20448;-81
2024/04/18 06:02:59;;;;;;;5.28;3.40;;;;;;;6.18;100.00;98522.19;5333692;26;19993;-81
2024/04/18 06:05:25;;;;;;;7.05;3.50;;;;;;;6.14;100.00;98520.88;5331775;26;20004;-81
2024/04/18 06:07:50;;;;;;;5.25;3.45;;;;;;;6.11;100.00;98502.47;5368229;26;20032;-79
2024/04/18 06:10:17;;;;;;;6.30;3.20;;;;;;;6.43;100.00;98540.78;5327498;26;20113;-81
2024/04/18 06:12:42;;;;;;;7.22;3.03;;;;;;;6.47;100.00;98537.53;5338015;26;19992;-79
2024/04/18 06:15:07;;;;;;;4.10;2.88;;;;;;;6.32;100.00;98524.06;5328741;26;19993;-78
2024/04/18 06:17:33;;;;;;;5.97;3.03;;;;;;;6.39;100.00;98517.97;5364829;26;20105;-80
2024/04/18 06:19:58;;;;;;;4.90;2.97;;;;;;;6.40;100.00;98527.69;5341525;26;20002;-79
2024/04/18 06:22:23;;;;;;;4.68;3.00;;;;;;;6.25;100.00;98544.63;5332477;26;19993;-78
2024/04/18 06:24:50;;;;;;;6.47;3.40;;;;;;;6.08;100.00;98543.13;5301108;26;20014;-79
2024/04/18 06:27:15;;;;;;;4.47;3.17;;;;;;;6.17;100.00;98533.94;5359818;26;20176;-78
2024/04/18 06:29:41;;;;;;;5.45;3.25;;;;;;;6.39;100.00;98559.09;5334836;26;19993;-80
2024/04/18 06:32:06;;;;;;;4.10;3.10;;;;;;;6.43;100.00;98551.53;5328917;26;20011;-78
2024/04/18 06:34:31;;;;;;;4.30;3.05;;;;;;;6.29;100.00;98529.81;5330587;26;19997;-77
2024/04/18 06:36:57;;;;;;;3.95;2.58;;;;;;;6.45;100.00;98544.13;5331830;26;19989;-76
2024/04/18 06:39:22;;;;;;;7.00;2.95;;;;;;;6.73;100.00;98552.38;5327264;26;20056;-79
2024/04/18 06:41:47;;;;;;;6.32;3.65;;;;;;;6.68;100.00;98535.94;5330810;26;19993;-77
2024/04/18 06:44:13;;;;;;;6.05;3.85;;;;;;;7.00;100.00;98564.34;5322847;26;20016;-77
2024/04/18 06:46:38;;;;;;;6.18;3.00;;;;;;;6.88;100.00;98525.50;5327420;26;19989;-76
2024/04/18 06:49:04;;;;;;;3.70;2.70;;;;;;;7.12;100.00;98568.22;5331776;26;20000;-82
2024/04/18 06:51:29;;;;;;;6.93;2.70;;;;;;;6.94;100.00;98528.28;5334034;26;20208;-81
2024/04/18 06:53:54;;;;;;;8.18;2.97;;;;;;;7.27;100.00;98544.00;5331777;26;20005;-79
2024/04/18 06:56:20;;;;;;;4.05;2.50;;;;;;;7.63;100.00;98570.09;5325638;26;20012;-79
2024/04/18 06:58:46;;;;;;;4.20;2.78;;;;;;;7.64;100.00;98575.25;5327874;26;20125;-80
2024/04/18 07:01:11;;;;;;;6.15;2.75;;;;;;;7.73;100.00;98575.13;5328495;26;20034;-79
2024/04/18 07:03:37;;;;;;;4.75;2.47;;;;;;;7.77;100.00;98577.28;5325533;26;19993;-81
2024/04/18 07:06:02;;;;;;;4.57;2.80;;;;;;;7.63;100.00;98570.91;5366419;26;20051;-80
2024/04/18 07:08:27;;;;;;;6.32;3.30;;;;;;;7.55;100.00;98583.66;5331175;26;20004;-78
2024/04/18 07:10:53;;;;;;;6.38;3.20;;;;;;;7.46;100.00;98585.59;5322002;26;20005;-79
2024/04/18 07:13:19;;;;;;;4.43;3.05;;;;;;;7.43;100.00;98594.06;5322912;26;20097;-82
2024/04/18 07:15:44;;;;;;;8.82;4.15;;;;;;;7.43;100.00;98594.06;5334660;26;19996;-85
2024/04/18 07:18:10;;;;;;;5.20;3.22;;;;;;;7.43;100.00;98602.16;5331907;26;20148;-85
2024/04/18 07:20:35;;;;;;;5.78;3.05;;;;;;;7.36;100.00;98598.53;5337433;26;20064;-86
2024/04/18 07:23:00;;;;;;;4.72;2.63;;;;;;;7.43;100.00;98602.16;5325584;26;19996;-78
2024/04/18 07:25:26;;;;;;;6.28;3.08;;;;;;;7.50;100.00;98596.84;5327368;26;20028;-78
2024/04/18 07:27:51;;;;;;;3.85;2.70;;;;;;;7.54;100.00;98588.19;5332048;26;19997;-77
2024/04/18 07:30:16;;;;;;;9.75;3.05;;;;;;;7.86;100.00;98596.84;5341928;26;19993;-78
2024/04/18 07:32:42;;;;;;;6.65;2.80;;;;;;;7.95;100.00;98611.84;5331226;26;20007;-78
2024/04/18 07:35:08;;;;;;;3.95;2.72;;;;;;;8.17;100.00;98610.00;5332471;26;20000;-78
2024/04/18 07:37:33;;;;;;;3.67;2.85;;;;;;;8.23;100.00;98595.75;5363651;26;19997;-78
2024/04/18 07:40:02;;;;;;;4.93;3.55;;;;;;;8.64;100.00;98610.44;5329897;26;20105;-78
2024/04/18 07:42:27;;;;;;;5.85;2.97;;;;;;;8.40;100.00;98601.72;5312724;26;20264;-78
2024/04/18 07:44:53;;;;;;;4.80;3.30;;;;;;;9.21;100.00;98590.47;5330244;26;20005;-78
2024/04/18 07:47:22;;;;;;;4.53;3.17;;;;;;;10.69;100.00;98615.00;5332855;26;20212;-78
2024/04/18 07:49:47;;;;;;;6.88;3.35;;;;;;;11.87;100.00;98611.34;5321274;26;19994;-77
2024/04/18 07:52:13;;;;;;;5.75;3.90;;;;;;;13.49;100.00;98587.88;5339202;26;20208;-77
2024/04/18 07:54:38;;;;;;;4.30;3.30;;;;;;;15.66;100.00;98584.78;5329774;26;20003;-77
2024/04/18 07:57:04;;;;;;;5.25;4.10;;;;;;;16.09;88.20;98619.78;5330287;26;20104;-78
2024/04/18 07:59:29;;;;;;;4.93;3.60;;;;;;;15.59;87.15;98623.09;5336814;26;19993;-78
2024/04/18 08:01:54;;;;;;;5.35;3.55;;;;;;;14.61;93.41;98603.69;5348165;26;20020;-77
2024/04/18 08:04:20;;;;;;;4.72;3.67;;;;;;;14.42;100.00;98621.13;5335553;26;20044;-78
2024/04/18 08:06:45;;;;;;;4.32;3.15;;;;;;;13.46;100.00;98637.22;5325705;26;20043;-79
2024/04/18 08:09:10;;;;;;;6.82;3.78;;;;;;;12.55;100.00;98608.84;5332531;26;20233;-79
2024/04/18 08:11:36;;;;;;;4.68;3.15;;;;;;;11.83;100.00;98613.63;5322542;26;20155;-78
2024/04/18 08:14:01;;;;;;;4.82;3.55;;;;;;;11.09;100.00;98615.75;5332109;26;20008;-79
2024/04/18 08:16:27;;;;;;;4.72;3.67;;;;;;;10.91;100.00;98662.41;5341997;26;20012;-78
2024/04/18 08:18:52;;;;;;;5.35;3.63;;;;;;;10.94;100.00;98651.16;5326561;26;20019;-78
2024/04/18 08:21:17;;;;;;;6.20;3.55;;;;;;;11.54;100.00;98650.22;5369499;26;20119;-78
2024/04/18 08:23:50;;;;;;;4.53;2.90;;;;;;;13.47;100.00;98657.09;5331795;26;20039;-79
2024/04/18 08:26:16;;;;;;;4.38;2.95;;;;;;;17.82;85.39;98651.00;5339709;26;19997;-79
2024/04/18 08:28:41;;;;;;;5.03;3.38;;;;;;;18.77;73.26;98639.72;5338953;26;20003;-79
2024/04/18 08:31:06;;;;;;;4.93;2.83;;;;;;;18.81;70.50;98652.66;5334876;26;20003;-78
2024/04/18 08:33:32;;;;;;;4.90;2.67;;;;;;;18.78;71.45;98635.88;5331639;26;19997;-79
2024/04/18 08:35:57;;;;;;;3.47;2.60;;;;;;;20.56;61.68;98626.94;5343295;26;20216;-76
2024/04/18 08:38:22;;;;;;;3.42;2.67;;;;;;;21.01;60.40;98628.06;5333487;26;20013;-76
2024/04/18 08:40:50;;;;;;;5.38;2.97;;;;;;;18.50;62.85;98645.19;5330841;26;20101;-76
2024/04/18 08:43:16;;;;;;;3.83;2.50;;;;;;;20.47;64.83;98643.13;5329362;26;20001;-77
2024/04/18 08:45:43;;;;;;;5.32;2.70;;;;;;;21.67;58.87;98658.28;5330469;26;19999;-76
2024/04/18 08:48:10;;;;;;;3.25;2.45;;;;;;;19.32;60.17;98654.94;5319443;26;19989;-77
2024/04/18 08:50:37;;;;;;;5.30;2.88;;;;;;;17.22;66.16;98663.53;5321720;26;20228;-77
2024/04/18 08:53:04;;;;;;;4.35;2.90;;;;;;;14.55;75.62;98655.53;5338122;26;20005;-76
2024/04/18 08:55:34;;;;;;;3.65;2.60;;;;;;;12.97;94.66;98638.09;5332802;26;19993;-77
2024/04/18 08:58:10;;;;;;;4.38;2.53;;;;;;;11.96;100.00;98646.13;5328140;26;20008;-76
2024/04/18 09:00:43;;;;;;;3.75;2.67;;;;;;;11.14;100.00;98644.91;5337076;26;19993;-77
2024/04/18 09:03:10;;;;;;;4.93;3.28;;;;;;;10.88;100.00;98675.56;5338947;26;20039;-77
2024/04/18 09:05:36;;;;;;;7.70;3.20;;;;;;;10.63;100.00;98684.25;5326570;26;19999;-77
2024/04/18 09:08:01;;;;;;;5.93;3.10;;;;;;;10.83;100.00;98681.59;5329395;26;19993;-76
2024/04/18 09:10:29;;;;;;;5.97;2.85;;;;;;;11.59;100.00;98675.63;5339331;26;20012;-76
2024/04/18 09:12:55;;;;;;;5.15;3.40;;;;;;;12.83;100.00;98678.94;5330518;26;20008;-77
2024/04/18 09:15:22;;;;;;;6.03;2.95;;;;;;;14.11;100.00;98672.00;5327591;26;20004;-77
2024/04/18 09:18:05;;;;;;;5.88;3.30;;;;;;;14.35;100.00;98666.66;5331322;26;19992;-76
2024/04/18 09:20:35;;;;;;;5.22;3.80;;;;;;;13.82;100.00;98684.50;5332330;26;20001;-76
2024/04/18 09:23:01;;;;;;;8.57;3.55;;;;;;;13.59;100.00;98679.75;5329570;26;19997;-76
2024/04/18 09:25:26;;;;;;;5.40;3.72;;;;;;;12.92;100.00;98696.66;5359371;26;19992;-76
2024/04/18 09:27:52;;;;;;;7.78;4.13;;;;;;;11.60;100.00;98698.97;5325816;26;20000;-77
2024/04/18 09:30:17;;;;;;;5.82;3.95;;;;;;;9.55;100.00;98732.72;5329865;26;20003;-76
2024/04/18 09:32:43;;;;;;;6.53;4.88;;;;;;;8.41;100.00;98738.22;5331547;26;20003;-76
2024/04/18 09:35:09;;;;;;;7.13;4.65;;;;;;;7.56;100.00;98714.53;5327928;26;20008;-76
2024/04/18 09:37:39;;;;;;;6.25;4.63;;;;;;;7.04;100.00;98759.31;5331275;26;20086;-76
2024/04/18 09:40:08;;;;;;;6.63;4.75;;;;;;;6.71;100.00;98756.06;5333227;26;20015;-76
2024/04/18 09:42:51;;;;;;;9.07;5.18;;;;;;;6.78;100.00;98763.19;5331841;26;19993;-78
2024/04/18 09:45:19;;;;;;;8.32;5.38;;;;;;;7.01;100.00;98743.53;5325764;26;20151;-78
2024/04/18 09:47:47;;;;;;;7.78;5.10;;;;;;;6.96;100.00;98748.63;5351379;26;20001;-78
2024/04/18 09:50:13;;;;;;;12.20;7.00;;;;;;;8.02;100.00;98762.81;5338490;26;20100;-78
2024/04/18 09:52:40;;;;;;;5.43;3.97;;;;;;;8.44;100.00;98754.00;5320986;26;20055;-76
2024/04/18 09:55:07;;;;;;;10.88;8.85;;;;;;;9.03;100.00;98717.81;5330458;26;20271;-75
2024/04/18 09:57:34;;;;;;;4.57;3.38;;;;;;;11.00;100.00;98738.81;5364932;26;20000;-75
2024/04/18 10:00:00;;;;;;;5.88;3.97;;;;;;;13.20;100.00;98724.41;5341019;26;20022;-76
2024/04/18 10:02:25;;;;;;;4.15;2.60;;;;;;;15.94;100.00;98723.97;5353641;26;20009;-74
2024/04/18 10:04:51;;;;;;;4.57;2.70;;;;;;;17.43;100.00;98721.28;5358600;26;20029;-77
2024/04/18 10:07:19;;;;;;;4.25;2.97;;;;;;;19.44;91.63;98687.66;5350858;26;19999;-76
2024/04/18 10:09:50;;;;;;;4.63;3.13;;;;;;;19.26;81.75;98700.72;5320953;26;19993;-75
2024/04/18 10:12:16;;;;;;;3.40;2.53;;;;;;;16.72;90.87;98723.63;5351440;26;20008;-74
2024/04/18 10:14:42;;;;;;;3.38;2.15;;;;;;;17.19;98.67;98726.94;5365351;26;20047;-75
2024/04/18 10:17:21;;;;;;;2.38;1.90;;;;;;;16.17;100.00;98734.03;5361786;26;20209;-76
2024/04/18 10:19:47;;;;;;;1.70;1.45;;;;;;;17.41;100.00;98732.47;5379412;21;20005;-52
2024/04/18 10:22:13;;;;;;;1.90;1.35;;;;;;;17.64;98.33;98730.63;5376368;26;20332;-52
2024/04/18 10:24:39;;;;;;;1.42;1.33;;;;;;;19.97;85.69;98723.44;5380350;26;20415;-52
2024/04/18 10:27:10;;;;;;;3.55;1.58;;;;;;;20.28;75.04;98724.41;5351302;26;20005;-52
2024/04/18 10:29:37;;;;;;;2.55;1.60;;;;;;;18.38;76.43;98733.00;5348456;26;20366;-52
2024/04/18 10:32:03;;;;;;;3.20;1.73;;;;;;;17.87;81.34;98735.91;5327466;26;20020;-52
2024/04/18 10:34:29;;;;;;;1.67;1.23;;;;;;;18.32;79.43;98736.78;5341617;26;20356;-52
2024/04/18 10:37:05;;;;;;;2.95;1.67;;;;;;;17.37;82.77;98741.41;5345475;26;20420;-52
2024/04/18 10:39:34;;;;;;;2.53;1.85;;;;;;;16.34;87.15;98750.47;5352163;26;20000;-52
2024/04/18 10:42:10;;;;;;;2.63;2.00;;;;;;;15.02;98.05;98751.78;5354983;26;20082;-51
2024/04/18 10:44:37;;;;;;;4.18;2.13;;;;;;;14.65;100.00;98754.63;5337494;26;20353;-51
2024/04/18 10:47:04;;;;;;;3.30;2.00;;;;;;;14.69;100.00;98747.66;5347451;26;20033;-51
2024/04/18 10:49:29;;;;;;;3.80;1.90;;;;;;;15.37;100.00;98740.09;5342661;26;20001;-51
2024/04/18 10:51:58;;;;;;;2.25;1.70;;;;;;;14.55;96.63;98754.34;5345284;26;20043;-51
2024/04/18 10:54:24;;;;;;;2.20;1.63;;;;;;;13.58;100.00;98765.06;5356364;26;19992;-51
2024/04/18 10:56:50;;;;;;;2.85;1.95;;;;;;;13.02;100.00;98757.78;5351263;26;20047;-52
2024/04/18 10:59:15;;;;;;;2.85;1.80;;;;;;;13.40;100.00;98759.59;5354969;26;20437;-51
2024/04/18 11:01:42;;;;;;;2.00;1.60;;;;;;;13.48;100.00;98759.31;5354455;26;20000;-52
2024/04/18 11:04:09;;;;;;;2.13;1.70;;;;;;;13.30;100.00;98758.19;5337514;26;20006;-52
2024/04/18 11:06:38;;;;;;;2.75;1.70;;;;;;;15.77;100.00;98761.22;5340825;26;20364;-52
2024/04/18 11:09:03;;;;;;;2.00;1.50;;;;;;;19.45;96.73;98746.97;5340982;26;20013;-52
2024/04/18 11:11:32;;;;;;;2.22;1.88;;;;;;;23.38;69.33;98743.41;5363257;26;20001;-52
2024/04/18 11:13:59;;;;;;;4.13;2.20;;;;;;;23.91;59.55;98745.44;5340143;26;20005;-53
2024/04/18 11:16:25;;;;;;;2.92;2.63;;;;;;;22.74;62.30;98752.66;5351791;26;20456;-52
2024/04/18 11:18:55;;;;;;;2.10;1.60;;;;;;;23.69;61.80;98745.91;5344260;26;20005;-52
2024/04/18 11:21:21;;;;;;;1.50;1.10;;;;;;;26.99;53.56;98742.06;5349315;26;20000;-52
2024/04/18 11:23:55;;;;;;;2.47;1.92;;;;;;;25.19;51.53;98745.78;5342195;26;20021;-52
2024/04/18 11:26:27;;;;;;;3.35;2.83;;;;;;;23.05;52.19;98758.81;5347375;26;20453;-53
2024/04/18 11:28:55;;;;;;;3.38;2.78;;;;;;;25.38;50.95;98741.00;5339664;26;20020;-53